sensor_id;sensor_type;location;lat;lon;timestamp;temperature;humidity
2435;DHT22;1228;51.022;6.764;2023-03-14T00:02:07;11.60;99.90
2435;DHT22;1228;51.022;6.764;2023-03-14T00:04:32;11.50;99.90
2435;DHT22;1228;51.022;6.764;2023-03-14T00:06:58;11.40;99.90
2435;DHT22;1228;51.022;6.764;2023-03-14T00:09:23;11.40;99.90
2435;DHT22;1228;51.022;6.764;2023-03-14T00:11:49;11.20;99.90
2435;DHT22;1228;51.022;6.764;2023-03-14T00:14:15;11.20;99.90
2435;DHT22;1228;51.022;6.764;2023-03-14T00:16:42;11.10;99.90
2435;DHT22;1228;51.022;6.764;2023-03-14T00:19:10;11.00;99.90
2435;DHT22;1228;51.022;6.764;2023-03-14T00:21:36;10.90;99.90
2435;DHT22;1228;51.022;6.764;2023-03-14T00:24:01;10.90;99.90
2435;DHT22;1228;51.022;6.764;2023-03-14T00:26:27;10.90;99.90
2435;DHT22;1228;51.022;6.764;2023-03-14T00:28:54;11.00;99.90
2435;DHT22;1228;51.022;6.764;2023-03-14T00:31:19;11.20;99.90
2435;DHT22;1228;51.022;6.764;2023-03-14T00:33:45;11.30;99.90
2435;DHT22;1228;51.022;6.764;2023-03-14T00:36:16;11.40;99.90
2435;DHT22;1228;51.022;6.764;2023-03-14T00:38:44;11.50;99.90
2435;DHT22;1228;51.022;6.764;2023-03-14T00:41:13;11.60;99.90
2435;DHT22;1228;51.022;6.764;2023-03-14T00:43:39;11.70;99.90
2435;DHT22;1228;51.022;6.764;2023-03-14T00:46:05;11.70;99.90
2435;DHT22;1228;51.022;6.764;2023-03-14T00:48:31;11.60;99.90
2435;DHT22;1228;51.022;6.764;2023-03-14T00:50:57;11.00;99.90
2435;DHT22;1228;51.022;6.764;2023-03-14T00:53:23;10.20;99.90
2435;DHT22;1228;51.022;6.764;2023-03-14T00:55:49;9.60;99.90
2435;DHT22;1228;51.022;6.764;2023-03-14T00:58:17;9.20;99.90
2435;DHT22;1228;51.022;6.764;2023-03-14T01:00:43;9.10;99.90
2435;DHT22;1228;51.022;6.764;2023-03-14T01:03:10;9.00;99.90
2435;DHT22;1228;51.022;6.764;2023-03-14T01:05:36;9.00;99.90
2435;DHT22;1228;51.022;6.764;2023-03-14T01:08:03;9.10;99.90
2435;DHT22;1228;51.022;6.764;2023-03-14T01:10:29;9.20;99.90
2435;DHT22;1228;51.022;6.764;2023-03-14T01:12:54;9.20;99.90
2435;DHT22;1228;51.022;6.764;2023-03-14T01:15:20;9.20;99.90
2435;DHT22;1228;51.022;6.764;2023-03-14T01:17:46;9.20;99.90
2435;DHT22;1228;51.022;6.764;2023-03-14T01:20:13;9.30;99.90
2435;DHT22;1228;51.022;6.764;2023-03-14T01:22:40;9.30;99.90
2435;DHT22;1228;51.022;6.764;2023-03-14T01:25:12;9.30;99.90
2435;DHT22;1228;51.022;6.764;2023-03-14T01:27:38;9.20;99.90
2435;DHT22;1228;51.022;6.764;2023-03-14T01:30:04;9.20;99.90
2435;DHT22;1228;51.022;6.764;2023-03-14T01:32:30;9.10;99.90
2435;DHT22;1228;51.022;6.764;2023-03-14T01:34:56;9.10;99.90
2435;DHT22;1228;51.022;6.764;2023-03-14T01:37:22;9.10;99.90
2435;DHT22;1228;51.022;6.764;2023-03-14T01:39:47;9.00;99.90
2435;DHT22;1228;51.022;6.764;2023-03-14T01:42:14;9.00;99.90
2435;DHT22;1228;51.022;6.764;2023-03-14T01:44:54;9.00;99.90
2435;DHT22;1228;51.022;6.764;2023-03-14T01:47:21;9.00;99.90
2435;DHT22;1228;51.022;6.764;2023-03-14T01:49:49;9.00;99.90
2435;DHT22;1228;51.022;6.764;2023-03-14T01:52:49;8.90;99.90
2435;DHT22;1228;51.022;6.764;2023-03-14T01:55:22;8.90;99.90
2435;DHT22;1228;51.022;6.764;2023-03-14T01:58:15;8.90;99.90
2435;DHT22;1228;51.022;6.764;2023-03-14T02:00:42;8.80;99.90
2435;DHT22;1228;51.022;6.764;2023-03-14T02:03:14;8.90;99.90
2435;DHT22;1228;51.022;6.764;2023-03-14T02:05:42;8.90;99.90
2435;DHT22;1228;51.022;6.764;2023-03-14T02:08:11;8.90;99.90
2435;DHT22;1228;51.022;6.764;2023-03-14T02:10:44;8.90;99.90
2435;DHT22;1228;51.022;6.764;2023-03-14T02:13:10;9.00;99.90
2435;DHT22;1228;51.022;6.764;2023-03-14T02:15:37;9.00;99.90
2435;DHT22;1228;51.022;6.764;2023-03-14T02:18:04;9.00;99.90
2435;DHT22;1228;51.022;6.764;2023-03-14T02:20:51;9.00;99.90
2435;DHT22;1228;51.022;6.764;2023-03-14T02:23:43;9.00;99.90
2435;DHT22;1228;51.022;6.764;2023-03-14T02:26:28;8.90;99.90
2435;DHT22;1228;51.022;6.764;2023-03-14T02:28:56;8.90;99.90
2435;DHT22;1228;51.022;6.764;2023-03-14T02:31:22;8.90;99.90
2435;DHT22;1228;51.022;6.764;2023-03-14T02:33:48;8.90;99.90
2435;DHT22;1228;51.022;6.764;2023-03-14T02:36:14;9.00;99.90
2435;DHT22;1228;51.022;6.764;2023-03-14T02:39:11;9.00;99.90
2435;DHT22;1228;51.022;6.764;2023-03-14T02:41:39;9.10;99.90
2435;DHT22;1228;51.022;6.764;2023-03-14T02:44:05;9.10;99.90
2435;DHT22;1228;51.022;6.764;2023-03-14T02:46:30;9.20;99.90
2435;DHT22;1228;51.022;6.764;2023-03-14T02:49:08;9.20;99.90
2435;DHT22;1228;51.022;6.764;2023-03-14T02:51:36;9.20;99.90
2435;DHT22;1228;51.022;6.764;2023-03-14T02:54:02;9.20;99.90
2435;DHT22;1228;51.022;6.764;2023-03-14T02:56:27;9.10;99.90
2435;DHT22;1228;51.022;6.764;2023-03-14T02:58:53;9.10;99.90
2435;DHT22;1228;51.022;6.764;2023-03-14T03:01:18;9.10;99.90
2435;DHT22;1228;51.022;6.764;2023-03-14T03:03:44;9.10;99.90
2435;DHT22;1228;51.022;6.764;2023-03-14T03:06:10;9.20;99.90
2435;DHT22;1228;51.022;6.764;2023-03-14T03:08:36;9.30;99.90
2435;DHT22;1228;51.022;6.764;2023-03-14T03:11:01;9.30;99.90
2435;DHT22;1228;51.022;6.764;2023-03-14T03:13:27;9.40;99.90
2435;DHT22;1228;51.022;6.764;2023-03-14T03:15:53;9.40;99.90
2435;DHT22;1228;51.022;6.764;2023-03-14T03:18:19;9.50;99.90
2435;DHT22;1228;51.022;6.764;2023-03-14T03:20:44;9.60;99.90
2435;DHT22;1228;51.022;6.764;2023-03-14T03:23:11;9.60;99.90
2435;DHT22;1228;51.022;6.764;2023-03-14T03:25:36;9.60;99.90
2435;DHT22;1228;51.022;6.764;2023-03-14T03:28:02;9.70;99.90
2435;DHT22;1228;51.022;6.764;2023-03-14T03:30:39;9.70;99.90
2435;DHT22;1228;51.022;6.764;2023-03-14T03:33:05;9.70;99.90
2435;DHT22;1228;51.022;6.764;2023-03-14T03:35:31;9.60;99.90
2435;DHT22;1228;51.022;6.764;2023-03-14T03:37:57;9.60;99.90
2435;DHT22;1228;51.022;6.764;2023-03-14T03:40:22;9.60;99.90
2435;DHT22;1228;51.022;6.764;2023-03-14T03:42:48;9.60;99.90
2435;DHT22;1228;51.022;6.764;2023-03-14T03:45:13;9.60;99.90
2435;DHT22;1228;51.022;6.764;2023-03-14T03:47:39;9.50;99.90
2435;DHT22;1228;51.022;6.764;2023-03-14T03:50:05;9.50;99.90
2435;DHT22;1228;51.022;6.764;2023-03-14T03:52:31;9.50;99.90
2435;DHT22;1228;51.022;6.764;2023-03-14T03:54:56;9.50;99.90
2435;DHT22;1228;51.022;6.764;2023-03-14T03:57:22;9.40;99.90
2435;DHT22;1228;51.022;6.764;2023-03-14T03:59:47;9.40;99.90
2435;DHT22;1228;51.022;6.764;2023-03-14T04:02:13;9.40;99.90
2435;DHT22;1228;51.022;6.764;2023-03-14T04:04:38;9.40;99.90
2435;DHT22;1228;51.022;6.764;2023-03-14T04:07:04;9.40;99.90
2435;DHT22;1228;51.022;6.764;2023-03-14T04:09:30;9.40;99.90
2435;DHT22;1228;51.022;6.764;2023-03-14T04:11:56;9.40;99.90
2435;DHT22;1228;51.022;6.764;2023-03-14T04:14:22;9.40;99.90
2435;DHT22;1228;51.022;6.764;2023-03-14T04:16:48;9.40;99.90
2435;DHT22;1228;51.022;6.764;2023-03-14T04:19:13;9.40;99.90
2435;DHT22;1228;51.022;6.764;2023-03-14T04:21:39;9.40;99.90
2435;DHT22;1228;51.022;6.764;2023-03-14T04:24:12;9.40;99.90
2435;DHT22;1228;51.022;6.764;2023-03-14T04:26:38;9.40;99.90
2435;DHT22;1228;51.022;6.764;2023-03-14T04:29:03;9.40;99.90
2435;DHT22;1228;51.022;6.764;2023-03-14T04:31:29;9.40;99.90
2435;DHT22;1228;51.022;6.764;2023-03-14T04:33:54;9.40;99.90
2435;DHT22;1228;51.022;6.764;2023-03-14T04:36:20;9.40;99.90
2435;DHT22;1228;51.022;6.764;2023-03-14T04:38:45;9.40;99.90
2435;DHT22;1228;51.022;6.764;2023-03-14T04:41:11;9.50;99.90
2435;DHT22;1228;51.022;6.764;2023-03-14T04:43:37;9.50;99.90
2435;DHT22;1228;51.022;6.764;2023-03-14T04:46:02;9.50;99.90
2435;DHT22;1228;51.022;6.764;2023-03-14T04:48:28;9.50;99.90
2435;DHT22;1228;51.022;6.764;2023-03-14T04:50:54;9.50;99.90
2435;DHT22;1228;51.022;6.764;2023-03-14T04:53:19;9.50;99.90
2435;DHT22;1228;51.022;6.764;2023-03-14T04:55:53;9.50;99.90
2435;DHT22;1228;51.022;6.764;2023-03-14T04:58:19;9.50;99.90
2435;DHT22;1228;51.022;6.764;2023-03-14T05:00:45;9.50;99.90
2435;DHT22;1228;51.022;6.764;2023-03-14T05:03:11;9.50;99.90
2435;DHT22;1228;51.022;6.764;2023-03-14T05:05:37;9.50;99.90
2435;DHT22;1228;51.022;6.764;2023-03-14T05:08:02;9.50;99.90
2435;DHT22;1228;51.022;6.764;2023-03-14T05:10:28;9.50;99.90
2435;DHT22;1228;51.022;6.764;2023-03-14T05:12:54;9.50;99.90
2435;DHT22;1228;51.022;6.764;2023-03-14T05:15:20;9.50;99.90
2435;DHT22;1228;51.022;6.764;2023-03-14T05:17:46;9.50;99.90
2435;DHT22;1228;51.022;6.764;2023-03-14T05:20:12;9.50;99.90
2435;DHT22;1228;51.022;6.764;2023-03-14T05:22:38;9.50;99.90
2435;DHT22;1228;51.022;6.764;2023-03-14T05:25:04;9.50;99.90
2435;DHT22;1228;51.022;6.764;2023-03-14T05:27:30;9.50;99.90
2435;DHT22;1228;51.022;6.764;2023-03-14T05:29:55;9.50;99.90
2435;DHT22;1228;51.022;6.764;2023-03-14T05:32:21;9.50;99.90
2435;DHT22;1228;51.022;6.764;2023-03-14T05:34:47;9.50;99.90
2435;DHT22;1228;51.022;6.764;2023-03-14T05:37:12;9.50;99.90
2435;DHT22;1228;51.022;6.764;2023-03-14T05:39:38;9.50;99.90
2435;DHT22;1228;51.022;6.764;2023-03-14T05:42:03;9.50;99.90
2435;DHT22;1228;51.022;6.764;2023-03-14T05:44:29;9.60;99.90
2435;DHT22;1228;51.022;6.764;2023-03-14T05:46:54;9.60;99.90
2435;DHT22;1228;51.022;6.764;2023-03-14T05:49:20;9.70;99.90
2435;DHT22;1228;51.022;6.764;2023-03-14T05:51:46;9.70;99.90
2435;DHT22;1228;51.022;6.764;2023-03-14T05:54:12;9.70;99.90
2435;DHT22;1228;51.022;6.764;2023-03-14T05:56:37;9.70;99.90
2435;DHT22;1228;51.022;6.764;2023-03-14T05:59:03;9.60;99.90
2435;DHT22;1228;51.022;6.764;2023-03-14T06:01:29;9.60;99.90
2435;DHT22;1228;51.022;6.764;2023-03-14T06:03:55;9.60;99.90
2435;DHT22;1228;51.022;6.764;2023-03-14T06:06:20;9.60;99.90
2435;DHT22;1228;51.022;6.764;2023-03-14T06:08:46;9.60;99.90
2435;DHT22;1228;51.022;6.764;2023-03-14T06:11:12;9.60;99.90
2435;DHT22;1228;51.022;6.764;2023-03-14T06:13:37;9.50;99.90
2435;DHT22;1228;51.022;6.764;2023-03-14T06:16:03;9.50;99.90
2435;DHT22;1228;51.022;6.764;2023-03-14T06:18:29;9.50;99.90
2435;DHT22;1228;51.022;6.764;2023-03-14T06:20:55;9.60;99.90
2435;DHT22;1228;51.022;6.764;2023-03-14T06:23:21;9.50;99.90
2435;DHT22;1228;51.022;6.764;2023-03-14T06:25:47;9.60;99.90
2435;DHT22;1228;51.022;6.764;2023-03-14T06:28:12;9.60;99.90
2435;DHT22;1228;51.022;6.764;2023-03-14T06:30:38;9.60;99.90
2435;DHT22;1228;51.022;6.764;2023-03-14T06:33:04;9.70;99.90
2435;DHT22;1228;51.022;6.764;2023-03-14T06:35:29;9.70;99.90
2435;DHT22;1228;51.022;6.764;2023-03-14T06:37:55;9.80;99.90
2435;DHT22;1228;51.022;6.764;2023-03-14T06:40:21;9.80;99.90
2435;DHT22;1228;51.022;6.764;2023-03-14T06:42:47;9.90;99.90
2435;DHT22;1228;51.022;6.764;2023-03-14T06:45:13;10.00;99.90
2435;DHT22;1228;51.022;6.764;2023-03-14T06:47:39;10.10;99.90
2435;DHT22;1228;51.022;6.764;2023-03-14T06:50:08;10.20;99.90
2435;DHT22;1228;51.022;6.764;2023-03-14T06:52:34;10.20;99.90
2435;DHT22;1228;51.022;6.764;2023-03-14T06:55:00;10.20;99.90
2435;DHT22;1228;51.022;6.764;2023-03-14T06:57:26;10.30;99.90
2435;DHT22;1228;51.022;6.764;2023-03-14T06:59:51;10.30;99.90
2435;DHT22;1228;51.022;6.764;2023-03-14T07:02:17;10.20;99.90
2435;DHT22;1228;51.022;6.764;2023-03-14T07:04:42;10.20;99.90
2435;DHT22;1228;51.022;6.764;2023-03-14T07:07:08;10.30;99.90
2435;DHT22;1228;51.022;6.764;2023-03-14T07:09:34;10.40;99.90
2435;DHT22;1228;51.022;6.764;2023-03-14T07:12:00;10.50;99.90
2435;DHT22;1228;51.022;6.764;2023-03-14T07:14:26;10.60;99.90
2435;DHT22;1228;51.022;6.764;2023-03-14T07:16:52;10.70;99.90
2435;DHT22;1228;51.022;6.764;2023-03-14T07:19:17;10.80;99.90
2435;DHT22;1228;51.022;6.764;2023-03-14T07:21:43;10.90;99.90
2435;DHT22;1228;51.022;6.764;2023-03-14T07:24:08;11.00;99.90
2435;DHT22;1228;51.022;6.764;2023-03-14T07:26:34;11.00;99.90
2435;DHT22;1228;51.022;6.764;2023-03-14T07:29:00;11.10;99.90
2435;DHT22;1228;51.022;6.764;2023-03-14T07:31:28;11.10;99.90
2435;DHT22;1228;51.022;6.764;2023-03-14T07:33:54;11.20;99.90
2435;DHT22;1228;51.022;6.764;2023-03-14T07:36:19;11.20;99.90
2435;DHT22;1228;51.022;6.764;2023-03-14T07:38:45;11.20;99.90
2435;DHT22;1228;51.022;6.764;2023-03-14T07:41:11;11.20;99.90
2435;DHT22;1228;51.022;6.764;2023-03-14T07:43:36;11.10;99.90
2435;DHT22;1228;51.022;6.764;2023-03-14T07:46:02;11.20;99.90
2435;DHT22;1228;51.022;6.764;2023-03-14T07:48:28;11.20;99.90
2435;DHT22;1228;51.022;6.764;2023-03-14T07:50:55;11.20;99.90
2435;DHT22;1228;51.022;6.764;2023-03-14T07:53:21;11.30;99.90
2435;DHT22;1228;51.022;6.764;2023-03-14T07:55:47;11.30;99.90
2435;DHT22;1228;51.022;6.764;2023-03-14T07:58:13;11.30;99.90
2435;DHT22;1228;51.022;6.764;2023-03-14T08:00:39;11.40;99.90
2435;DHT22;1228;51.022;6.764;2023-03-14T08:03:05;11.40;99.90
2435;DHT22;1228;51.022;6.764;2023-03-14T08:05:34;11.50;99.90
2435;DHT22;1228;51.022;6.764;2023-03-14T08:08:00;11.70;99.90
2435;DHT22;1228;51.022;6.764;2023-03-14T08:10:25;11.80;99.90
2435;DHT22;1228;51.022;6.764;2023-03-14T08:12:54;11.90;99.90
2435;DHT22;1228;51.022;6.764;2023-03-14T08:15:20;12.00;99.90
2435;DHT22;1228;51.022;6.764;2023-03-14T08:17:46;12.10;99.90
2435;DHT22;1228;51.022;6.764;2023-03-14T08:20:19;12.10;99.90
2435;DHT22;1228;51.022;6.764;2023-03-14T08:22:46;12.00;99.90
2435;DHT22;1228;51.022;6.764;2023-03-14T08:25:11;12.00;99.90
2435;DHT22;1228;51.022;6.764;2023-03-14T08:27:37;11.90;99.90
2435;DHT22;1228;51.022;6.764;2023-03-14T08:30:05;11.90;99.90
2435;DHT22;1228;51.022;6.764;2023-03-14T08:32:31;11.80;99.90
2435;DHT22;1228;51.022;6.764;2023-03-14T08:34:57;11.70;99.90
2435;DHT22;1228;51.022;6.764;2023-03-14T08:37:23;11.60;99.90
2435;DHT22;1228;51.022;6.764;2023-03-14T08:39:50;11.50;99.90
2435;DHT22;1228;51.022;6.764;2023-03-14T08:42:16;11.50;99.90
2435;DHT22;1228;51.022;6.764;2023-03-14T08:44:41;11.70;99.90
2435;DHT22;1228;51.022;6.764;2023-03-14T08:47:08;11.80;99.90
2435;DHT22;1228;51.022;6.764;2023-03-14T08:49:33;11.70;99.90
2435;DHT22;1228;51.022;6.764;2023-03-14T08:52:01;11.60;99.90
2435;DHT22;1228;51.022;6.764;2023-03-14T08:54:28;11.50;99.90
2435;DHT22;1228;51.022;6.764;2023-03-14T08:56:54;11.40;99.90
2435;DHT22;1228;51.022;6.764;2023-03-14T08:59:20;11.30;99.90
2435;DHT22;1228;51.022;6.764;2023-03-14T09:01:45;11.30;99.90
2435;DHT22;1228;51.022;6.764;2023-03-14T09:04:11;11.20;99.90
2435;DHT22;1228;51.022;6.764;2023-03-14T09:06:36;11.20;99.90
2435;DHT22;1228;51.022;6.764;2023-03-14T09:09:02;11.10;99.90
2435;DHT22;1228;51.022;6.764;2023-03-14T09:11:28;11.10;99.90
2435;DHT22;1228;51.022;6.764;2023-03-14T09:13:53;11.10;99.90
2435;DHT22;1228;51.022;6.764;2023-03-14T09:16:19;11.00;99.90
2435;DHT22;1228;51.022;6.764;2023-03-14T09:18:45;11.00;99.90
2435;DHT22;1228;51.022;6.764;2023-03-14T09:21:10;11.00;99.90
2435;DHT22;1228;51.022;6.764;2023-03-14T09:23:36;11.10;99.90
2435;DHT22;1228;51.022;6.764;2023-03-14T09:26:02;10.80;99.90
2435;DHT22;1228;51.022;6.764;2023-03-14T09:28:27;10.20;99.90
2435;DHT22;1228;51.022;6.764;2023-03-14T09:30:53;9.90;99.90
2435;DHT22;1228;51.022;6.764;2023-03-14T09:33:20;9.70;99.90
2435;DHT22;1228;51.022;6.764;2023-03-14T09:35:45;9.50;99.90
2435;DHT22;1228;51.022;6.764;2023-03-14T09:38:11;9.20;99.90
2435;DHT22;1228;51.022;6.764;2023-03-14T09:40:38;9.00;99.90
2435;DHT22;1228;51.022;6.764;2023-03-14T09:43:04;9.00;99.90
2435;DHT22;1228;51.022;6.764;2023-03-14T09:45:36;8.70;99.90
2435;DHT22;1228;51.022;6.764;2023-03-14T09:48:04;8.60;99.90
2435;DHT22;1228;51.022;6.764;2023-03-14T09:50:40;8.50;99.90
2435;DHT22;1228;51.022;6.764;2023-03-14T09:53:11;8.40;99.90
2435;DHT22;1228;51.022;6.764;2023-03-14T09:55:38;8.40;99.90
2435;DHT22;1228;51.022;6.764;2023-03-14T09:58:17;8.40;99.90
2435;DHT22;1228;51.022;6.764;2023-03-14T10:00:44;8.50;99.90
2435;DHT22;1228;51.022;6.764;2023-03-14T10:05:40;8.60;99.90
2435;DHT22;1228;51.022;6.764;2023-03-14T10:08:06;8.50;99.90
2435;DHT22;1228;51.022;6.764;2023-03-14T10:10:35;8.50;99.90
2435;DHT22;1228;51.022;6.764;2023-03-14T10:13:20;8.40;99.90
2435;DHT22;1228;51.022;6.764;2023-03-14T10:16:07;8.30;99.90
2435;DHT22;1228;51.022;6.764;2023-03-14T10:18:33;8.20;99.90
2435;DHT22;1228;51.022;6.764;2023-03-14T10:23:32;7.90;99.90
2435;DHT22;1228;51.022;6.764;2023-03-14T10:26:13;7.90;99.90
2435;DHT22;1228;51.022;6.764;2023-03-14T10:28:43;7.90;99.90
2435;DHT22;1228;51.022;6.764;2023-03-14T10:31:09;7.90;99.90
2435;DHT22;1228;51.022;6.764;2023-03-14T10:33:37;7.90;99.90
2435;DHT22;1228;51.022;6.764;2023-03-14T10:36:23;7.90;99.90
2435;DHT22;1228;51.022;6.764;2023-03-14T10:41:47;8.00;99.90
2435;DHT22;1228;51.022;6.764;2023-03-14T10:44:22;8.10;99.90
2435;DHT22;1228;51.022;6.764;2023-03-14T10:47:03;8.20;99.90
2435;DHT22;1228;51.022;6.764;2023-03-14T10:49:34;8.30;99.90
2435;DHT22;1228;51.022;6.764;2023-03-14T10:52:24;8.30;99.90
2435;DHT22;1228;51.022;6.764;2023-03-14T10:54:55;8.40;99.90
2435;DHT22;1228;51.022;6.764;2023-03-14T10:57:21;8.50;99.90
2435;DHT22;1228;51.022;6.764;2023-03-14T10:59:47;8.40;99.90
2435;DHT22;1228;51.022;6.764;2023-03-14T11:05:14;8.20;99.90
2435;DHT22;1228;51.022;6.764;2023-03-14T11:07:45;8.30;99.90
2435;DHT22;1228;51.022;6.764;2023-03-14T11:20:46;8.70;99.90
2435;DHT22;1228;51.022;6.764;2023-03-14T11:23:24;8.80;99.90
2435;DHT22;1228;51.022;6.764;2023-03-14T11:26:01;8.90;99.90
2435;DHT22;1228;51.022;6.764;2023-03-14T11:28:37;8.50;99.90
2435;DHT22;1228;51.022;6.764;2023-03-14T11:31:32;7.70;99.90
2435;DHT22;1228;51.022;6.764;2023-03-14T11:34:01;7.10;99.90
2435;DHT22;1228;51.022;6.764;2023-03-14T11:36:33;6.90;99.90
2435;DHT22;1228;51.022;6.764;2023-03-14T11:39:18;6.80;99.90
2435;DHT22;1228;51.022;6.764;2023-03-14T11:41:51;6.80;99.90
2435;DHT22;1228;51.022;6.764;2023-03-14T11:47:02;6.90;99.90
2435;DHT22;1228;51.022;6.764;2023-03-14T11:49:36;6.90;99.90
2435;DHT22;1228;51.022;6.764;2023-03-14T11:52:28;6.90;99.90
2435;DHT22;1228;51.022;6.764;2023-03-14T11:57:28;7.00;99.90
2435;DHT22;1228;51.022;6.764;2023-03-14T12:00:04;7.10;99.90
2435;DHT22;1228;51.022;6.764;2023-03-14T12:08:26;7.40;99.90
2435;DHT22;1228;51.022;6.764;2023-03-14T12:11:03;7.70;99.90
2435;DHT22;1228;51.022;6.764;2023-03-14T12:13:33;7.90;99.90
2435;DHT22;1228;51.022;6.764;2023-03-14T12:16:00;8.10;99.90
2435;DHT22;1228;51.022;6.764;2023-03-14T12:18:33;8.00;99.90
2435;DHT22;1228;51.022;6.764;2023-03-14T12:21:05;8.00;99.90
2435;DHT22;1228;51.022;6.764;2023-03-14T12:23:53;8.10;99.90
2435;DHT22;1228;51.022;6.764;2023-03-14T12:26:27;8.10;99.90
2435;DHT22;1228;51.022;6.764;2023-03-14T12:29:17;8.20;99.90
2435;DHT22;1228;51.022;6.764;2023-03-14T12:32:07;8.00;99.90
2435;DHT22;1228;51.022;6.764;2023-03-14T12:34:43;7.80;99.90
2435;DHT22;1228;51.022;6.764;2023-03-14T12:37:25;7.70;99.90
2435;DHT22;1228;51.022;6.764;2023-03-14T12:40:20;7.70;99.90
2435;DHT22;1228;51.022;6.764;2023-03-14T12:42:59;7.60;99.90
2435;DHT22;1228;51.022;6.764;2023-03-14T12:45:33;7.60;99.90
2435;DHT22;1228;51.022;6.764;2023-03-14T12:50:46;7.20;99.90
2435;DHT22;1228;51.022;6.764;2023-03-14T12:56:04;7.10;99.90
2435;DHT22;1228;51.022;6.764;2023-03-14T12:59:05;7.00;99.90
2435;DHT22;1228;51.022;6.764;2023-03-14T13:02:14;7.00;99.90
2435;DHT22;1228;51.022;6.764;2023-03-14T13:04:36;7.10;99.90
2435;DHT22;1228;51.022;6.764;2023-03-14T13:07:13;7.30;99.90
2435;DHT22;1228;51.022;6.764;2023-03-14T13:10:03;7.70;99.90
2435;DHT22;1228;51.022;6.764;2023-03-14T13:12:37;8.50;99.90
2435;DHT22;1228;51.022;6.764;2023-03-14T13:15:15;9.10;99.90
2435;DHT22;1228;51.022;6.764;2023-03-14T13:17:42;9.20;99.90
2435;DHT22;1228;51.022;6.764;2023-03-14T13:20:36;8.90;99.90
2435;DHT22;1228;51.022;6.764;2023-03-14T13:23:01;8.70;99.90
2435;DHT22;1228;51.022;6.764;2023-03-14T13:25:32;7.90;99.90
2435;DHT22;1228;51.022;6.764;2023-03-14T13:27:59;7.40;99.90
2435;DHT22;1228;51.022;6.764;2023-03-14T13:30:28;7.10;99.90
2435;DHT22;1228;51.022;6.764;2023-03-14T13:32:55;6.70;99.90
2435;DHT22;1228;51.022;6.764;2023-03-14T13:35:29;6.60;99.90
2435;DHT22;1228;51.022;6.764;2023-03-14T13:38:00;6.50;99.90
2435;DHT22;1228;51.022;6.764;2023-03-14T13:40:32;6.50;99.90
2435;DHT22;1228;51.022;6.764;2023-03-14T13:43:11;6.50;99.90
2435;DHT22;1228;51.022;6.764;2023-03-14T13:45:55;6.70;99.90
2435;DHT22;1228;51.022;6.764;2023-03-14T13:48:22;6.80;99.90
2435;DHT22;1228;51.022;6.764;2023-03-14T13:50:56;6.80;99.90
2435;DHT22;1228;51.022;6.764;2023-03-14T13:53:24;6.90;99.90
2435;DHT22;1228;51.022;6.764;2023-03-14T13:55:50;7.00;99.90
2435;DHT22;1228;51.022;6.764;2023-03-14T13:58:27;7.10;99.90
2435;DHT22;1228;51.022;6.764;2023-03-14T14:00:55;7.30;99.90
2435;DHT22;1228;51.022;6.764;2023-03-14T14:03:22;7.40;99.90
2435;DHT22;1228;51.022;6.764;2023-03-14T14:05:48;7.60;99.90
2435;DHT22;1228;51.022;6.764;2023-03-14T14:08:14;7.80;99.90
2435;DHT22;1228;51.022;6.764;2023-03-14T14:10:39;8.00;99.90
2435;DHT22;1228;51.022;6.764;2023-03-14T14:13:10;8.20;99.90
2435;DHT22;1228;51.022;6.764;2023-03-14T14:15:41;8.30;99.90
2435;DHT22;1228;51.022;6.764;2023-03-14T14:18:10;8.30;99.90
2435;DHT22;1228;51.022;6.764;2023-03-14T14:20:41;8.30;99.90
2435;DHT22;1228;51.022;6.764;2023-03-14T14:23:17;8.30;99.90
2435;DHT22;1228;51.022;6.764;2023-03-14T14:25:45;8.40;99.90
2435;DHT22;1228;51.022;6.764;2023-03-14T14:28:25;8.40;99.90
2435;DHT22;1228;51.022;6.764;2023-03-14T14:33:44;8.40;99.90
2435;DHT22;1228;51.022;6.764;2023-03-14T14:36:21;8.30;99.90
2435;DHT22;1228;51.022;6.764;2023-03-14T14:39:03;8.30;99.90
2435;DHT22;1228;51.022;6.764;2023-03-14T14:41:32;8.40;99.90
2435;DHT22;1228;51.022;6.764;2023-03-14T14:43:59;8.40;99.90
2435;DHT22;1228;51.022;6.764;2023-03-14T14:46:27;8.30;99.90
2435;DHT22;1228;51.022;6.764;2023-03-14T14:49:03;8.30;99.90
2435;DHT22;1228;51.022;6.764;2023-03-14T14:51:38;8.30;99.90
2435;DHT22;1228;51.022;6.764;2023-03-14T14:54:17;8.20;99.90
2435;DHT22;1228;51.022;6.764;2023-03-14T14:56:51;8.10;99.90
2435;DHT22;1228;51.022;6.764;2023-03-14T14:59:26;8.10;99.90
2435;DHT22;1228;51.022;6.764;2023-03-14T15:02:01;8.20;99.90
2435;DHT22;1228;51.022;6.764;2023-03-14T15:04:30;8.30;99.90
2435;DHT22;1228;51.022;6.764;2023-03-14T15:06:57;8.30;99.90
2435;DHT22;1228;51.022;6.764;2023-03-14T15:09:22;8.30;99.90
2435;DHT22;1228;51.022;6.764;2023-03-14T15:11:49;8.20;99.90
2435;DHT22;1228;51.022;6.764;2023-03-14T15:14:15;8.20;99.90
2435;DHT22;1228;51.022;6.764;2023-03-14T15:16:41;8.20;99.90
2435;DHT22;1228;51.022;6.764;2023-03-14T15:19:13;8.30;99.90
2435;DHT22;1228;51.022;6.764;2023-03-14T15:21:40;8.40;99.90
2435;DHT22;1228;51.022;6.764;2023-03-14T15:24:07;8.30;99.90
2435;DHT22;1228;51.022;6.764;2023-03-14T15:26:33;8.30;99.90
2435;DHT22;1228;51.022;6.764;2023-03-14T15:28:59;8.30;99.90
2435;DHT22;1228;51.022;6.764;2023-03-14T15:31:25;8.30;99.90
2435;DHT22;1228;51.022;6.764;2023-03-14T15:33:50;8.30;99.90
2435;DHT22;1228;51.022;6.764;2023-03-14T15:36:21;8.30;99.90
2435;DHT22;1228;51.022;6.764;2023-03-14T15:38:48;8.20;99.90
2435;DHT22;1228;51.022;6.764;2023-03-14T15:41:14;8.20;99.90
2435;DHT22;1228;51.022;6.764;2023-03-14T15:43:41;8.20;99.90
2435;DHT22;1228;51.022;6.764;2023-03-14T15:46:09;8.10;99.90
2435;DHT22;1228;51.022;6.764;2023-03-14T15:48:35;8.10;99.90
2435;DHT22;1228;51.022;6.764;2023-03-14T15:51:01;8.20;99.90
2435;DHT22;1228;51.022;6.764;2023-03-14T15:53:26;8.20;99.90
2435;DHT22;1228;51.022;6.764;2023-03-14T15:55:52;8.30;99.90
2435;DHT22;1228;51.022;6.764;2023-03-14T15:58:19;8.20;99.90
2435;DHT22;1228;51.022;6.764;2023-03-14T16:00:44;8.20;99.90
2435;DHT22;1228;51.022;6.764;2023-03-14T16:03:10;8.20;99.90
2435;DHT22;1228;51.022;6.764;2023-03-14T16:05:37;8.20;99.90
2435;DHT22;1228;51.022;6.764;2023-03-14T16:08:03;8.10;99.90
2435;DHT22;1228;51.022;6.764;2023-03-14T16:10:29;8.10;99.90
2435;DHT22;1228;51.022;6.764;2023-03-14T16:12:55;8.00;99.90
2435;DHT22;1228;51.022;6.764;2023-03-14T16:15:21;8.00;99.90
2435;DHT22;1228;51.022;6.764;2023-03-14T16:17:46;8.00;99.90
2435;DHT22;1228;51.022;6.764;2023-03-14T16:20:12;7.90;99.90
2435;DHT22;1228;51.022;6.764;2023-03-14T16:22:38;7.90;99.90
2435;DHT22;1228;51.022;6.764;2023-03-14T16:25:05;7.90;99.90
2435;DHT22;1228;51.022;6.764;2023-03-14T16:27:31;7.90;99.90
2435;DHT22;1228;51.022;6.764;2023-03-14T16:29:58;7.80;99.90
2435;DHT22;1228;51.022;6.764;2023-03-14T16:32:26;7.80;99.90
2435;DHT22;1228;51.022;6.764;2023-03-14T16:34:52;7.70;99.90
2435;DHT22;1228;51.022;6.764;2023-03-14T16:37:18;7.70;99.90
2435;DHT22;1228;51.022;6.764;2023-03-14T16:39:46;7.60;99.90
2435;DHT22;1228;51.022;6.764;2023-03-14T16:42:13;7.60;99.90
2435;DHT22;1228;51.022;6.764;2023-03-14T16:44:38;7.60;99.90
2435;DHT22;1228;51.022;6.764;2023-03-14T16:47:04;7.50;99.90
2435;DHT22;1228;51.022;6.764;2023-03-14T16:49:30;7.50;99.90
2435;DHT22;1228;51.022;6.764;2023-03-14T16:51:55;7.50;99.90
2435;DHT22;1228;51.022;6.764;2023-03-14T16:54:21;7.40;99.90
2435;DHT22;1228;51.022;6.764;2023-03-14T16:56:47;7.40;99.90
2435;DHT22;1228;51.022;6.764;2023-03-14T16:59:14;7.30;99.90
2435;DHT22;1228;51.022;6.764;2023-03-14T17:01:40;7.20;99.90
2435;DHT22;1228;51.022;6.764;2023-03-14T17:04:07;7.20;99.90
2435;DHT22;1228;51.022;6.764;2023-03-14T17:06:34;7.20;99.90